Onion Creek, California Weather observations

Data are for observation ending at time listed.
 Day   Time    Ave.   Ave.  Ave.  Vector   Max.   Stn.    Total    Solar   Ave.   Snow 
  of    of     Air    Rel.  Wind   Wind    Wind   Baro.  Precip.   Rad.    Soil   Depth
Year   Day     Temp.  Hum.  Speed  Dir.    Gust   Pres.                    Temp.       
2016   (PST)    F      %     mph   deg.    mph     mb.     in.     W/m2     F      in. 
---------------------------------------------------------------------------------------  
  44    0:00   32.7    79    2.1    39      2.7   837.2   21.64       0    32.7   999.0
  44    0:10   32.8    79    2.1    38      3.2   837.1   21.64       0    32.7   999.0
  44    0:20   32.9    78    1.7    42      3.0   837.0   21.64       0    32.7   999.0
  44    0:30   32.9    77    1.8    31      3.1   837.1   21.64       0    32.7   999.0
  44    0:40   32.9    78    1.8    22      3.4   837.0   21.64       0    32.7   999.0
  44    0:50   32.9    80    2.0    39      3.6   836.9   21.64       0    32.7   999.0
  44    1:00   33.1    78    2.0    41      3.5   836.8   21.64       0    32.7   999.0
  44    1:10   33.3    77    2.0    39      3.7   836.8   21.64       0    32.7   999.0
  44    1:20   33.2    78    1.9    30      3.0   836.8   21.64       0    32.7   999.0
  44    1:30   33.3    80    2.3    38      3.4   836.9   21.64       0    32.7   999.0
  44    1:40   33.7    80    2.4    37      3.7   836.8   21.64       0    32.7   999.0
  44    1:50   33.8    80    1.9    48      2.7   836.8   21.64       0    32.7   999.0
  44    2:00   33.4    80    2.1    35      2.9   836.8   21.64       0    32.7   999.0
  44    2:10   33.3    79    2.4    36      3.1   836.8   21.64       0    32.7   999.0
  44    2:20   33.2    78    2.1    33      3.1   836.8   21.64       0    32.7   999.0
  44    2:30   33.3    77    1.8    27      2.7   836.8   21.64       0    32.7   999.0
  44    2:40   33.4    76    1.6    31      3.1   836.9   21.64       0    32.7   999.0
  44    2:50   33.2    76    2.1    40      3.1   836.8   21.64       0    32.7   999.0
  44    3:00   32.8    75    1.5    21      2.6   836.9   21.64       0    32.7   999.0
  44    3:10   32.2    75    1.6    34      2.8   836.9   21.64       0    32.7   999.0
  44    3:20   32.4    71    2.6    41      3.7   836.9   21.64       0    32.7   999.0
  44    3:30   32.5    72    1.9    43      3.2   837.0   21.64       0    32.7   999.0
  44    3:40   32.1    75    1.8    45      2.9   837.0   21.64       0    32.7   999.0
  44    3:50   31.7    77    2.0    43      2.9   836.9   21.64       0    32.7   999.0
  44    4:00   31.7    77    2.2    41      3.4   836.9   21.64       0    32.7   999.0
  44    4:10   31.6    75    2.5    38      3.7   836.8   21.64       0    32.7   999.0
  44    4:20   31.6    76    2.7    36      3.8   836.8   21.64       0    32.7   999.0
  44    4:30   31.8    72    2.7    46      3.8   836.9   21.67       0    32.7   999.0
  44    4:40   31.9    70    1.9    40      3.1   836.9   21.64       0    32.7   999.0
  44    4:50   31.4    74    2.1    40      3.8   837.0   21.64       0    32.7   999.0
  44    5:00   30.9    76    1.8    35      3.0   837.0   21.64       0    32.7   999.0
  44    5:10   30.7    76    1.4    42      3.1   837.0   21.64       0    32.7   999.0
  44    5:20   30.7    76    2.0    45      3.0   837.1   21.64       0    32.7   999.0
  44    5:30   30.5    76    1.8    37      3.2   837.1   21.64       0    32.7   999.0
  44    5:40   30.3    76    2.0    45      3.5   837.2   21.64       0    32.7   999.0
  44    5:50   30.6    72    2.2    34      3.4   837.2   21.64       0    32.7   999.0
  44    6:00   30.1    74    1.5    37      3.1   837.3   21.64       0    32.7   999.0
  44    6:10   29.5    75    1.2    46      2.7   837.3   21.64       0    32.6   999.0
  44    6:20   29.8    75    2.3    45      3.1   837.3   21.64       0    32.6   999.0
  44    6:30   29.5    76    2.4    38      3.1   837.4   21.64       0    32.7   999.0
  44    6:40   29.5    76    2.7    41      3.5   837.4   21.64       0    32.7   999.0
  44    6:50   29.7    74    1.8    40      3.1   837.5   21.64       1    32.6   999.0
  44    7:00   29.7    72    1.3    34      2.8   837.5   21.64       2    32.7   999.0
  44    7:10   29.4    71    1.6    27      3.9   837.6   21.64       4    32.7   999.0
  44    7:20   29.6    69    2.1    40      3.5   837.7   21.64       7    32.7   999.0
  44    7:30   29.8    73    2.1    36      3.2   837.8   21.64       9    32.6   999.0
  44    7:40   29.9    73    1.8    39      2.8   837.9   21.64      11    32.7   999.0
  44    7:50   30.0    70    1.8    36      3.1   838.0   21.64      13    32.6   999.0
  44    8:00   30.3    72    2.3    40      3.4   838.1   21.64      14    32.7   999.0
  44    8:10   30.7    71    2.1    40      3.4   838.1   21.64      15    32.6   999.0
  44    8:20   31.0    70    2.1    36      3.1   838.2   21.64      17    32.7   999.0
  44    8:30   31.4    68    2.3    37      3.2   838.3   21.64      18    32.6   999.0
  44    8:40   31.9    66    1.9    51      3.0   838.3   21.64      20    32.6   999.0
  44    8:50   33.1    60    1.6    46      2.7   838.2   21.67      23    32.6   999.0
  44    9:00   33.9    63    1.8    47      2.9   838.2   21.64      30    32.7   999.0
  44    9:10   34.7    58    1.8    64      2.5   838.2   21.67      38    32.7   999.0
  44    9:20   35.8    55    1.2    50      1.8   838.2   21.67     417    32.7   999.0
  44    9:30   37.7    48    1.7    57      2.6   838.3   21.64     477    32.7   999.0
  44    9:40   40.0    43    1.3    69      2.2   838.3   21.67     513    32.7   999.0
  44    9:50   41.3    40    1.5    67      2.6   838.3   21.64     543    32.8   999.0
  44   10:00   42.9    37    1.1    58      3.0   838.2   21.64     570    32.9   999.0
  44   10:10   44.5    33    1.0    77      2.3   838.2   21.67     595    32.9   999.0
  44   10:20   45.8    31    1.3    80      3.1   838.3   21.64     618    32.9   999.0
  44   10:30   48.4    25    1.3    94      3.7   838.3   21.64     640    32.9   999.0
  44   10:40   50.3    23    1.1   106      3.1   838.4   21.67     660    33.0   999.0
  44   10:50   51.7    22    0.8   116      3.3   838.5   21.67     677    33.0   999.0
  44   11:00   52.2    21    1.0    21      4.5   838.6   21.67     692    33.0   999.0
  44   11:10   53.2    17    1.7   136      4.1   838.5   21.64     703    33.1   999.0
  44   11:20   53.5    18    2.2   170      4.7   838.4   21.67     712    33.1   999.0
  44   11:30   55.4    15    1.5    86      5.3   838.3   21.67     720    33.1   999.0
  44   11:40   55.5    15    1.7   173      5.3   838.2   21.67     726    33.1   999.0
  44   11:50   55.2    18    2.0   304      7.7   838.1   21.64     733    33.1   999.0
  44   12:00   54.4    18    1.5   301      4.2   838.1   21.64     737    33.1   999.0
  44   12:10   56.1    17    1.4   156      4.0   838.1   21.64     742    33.1   999.0
  44   12:20   57.3    14    1.2   189      3.3   838.1   21.64     739    33.1   999.0
  44   12:30   57.2    13    1.1   126      3.1   838.1   21.62     702    33.2   999.0
  44   12:40   57.3    15    2.2   251      6.4   838.1   21.64     712    33.2   999.0
  44   12:50   56.8    14    2.9   258      7.0   837.9   21.64     724    33.2   999.0
  44   13:00   57.2    14    2.5   262      7.7   837.7   21.64     723    33.2   999.0
  44   13:10   57.3    14    2.1   278      6.2   837.5   21.64     717    33.1   999.0
  44   13:20   57.9    14    2.0   248      6.4   837.4   21.64     712    33.1   999.0
  44   13:30   57.3    15    1.6   200      4.4   837.3   21.67     701    33.1   999.0
  44   13:40   57.1    14    2.9   270      7.2   837.1   21.64     684    33.1   999.0
  44   13:50   56.0    17    2.8   259      7.4   836.9   21.64     665    33.1   999.0
  44   14:00   56.2    16    2.3   279      8.5   836.9   21.64     647    33.1   999.0
  44   14:10   56.6    17    2.2   264      8.3   836.8   21.64     629    33.1   999.0
  44   14:20   56.6    17    1.6   228      6.7   836.8   21.62     609    33.1   999.0
  44   14:30   56.6    15    1.4   207      4.9   836.7   21.62     587    33.1   999.0
  44   14:40   55.9    18    1.3   206      3.9   836.7   21.62     563    33.1   999.0
  44   14:50   56.7    17    2.4   227      5.8   836.6   21.62     522    33.1   999.0
  44   15:00   55.7    21    2.4   215      8.8   836.6   21.62     401    33.0   999.0
  44   15:10   54.2    24    2.3   235      7.2   836.7   21.64     247    33.0   999.0
  44   15:20   53.9    26    1.7   236      5.9   836.7   21.64     282    33.0   999.0
  44   15:30   53.0    28    1.0   126      3.2   836.7   21.64     210    33.0   999.0
  44   15:40   52.5    29    1.5   199      8.3   836.8   21.64     246    33.0   999.0
  44   15:50   52.5    32    1.1   237      5.0   836.9   21.64     220    33.0   999.0
  44   16:00   51.5    36    0.6   290      3.1   836.9   21.62     278    33.0   999.0
  44   16:10   51.4    36    1.4   243      3.8   836.9   21.62     160    33.0   999.0
  44   16:20   51.1    38    0.7   328      2.2   836.9   21.64      94    33.0   999.0
  44   16:30   47.6    47    0.6    30      1.7   836.7   21.64     125    33.0   999.0
  44   16:40   46.3    51    0.3     5      1.8   836.7   21.62     192    33.0   999.0
  44   16:50   45.1    53    0.4    12      1.8   836.8   21.64      98    33.0   999.0
  44   17:00   42.8    59    0.8    30      1.8   836.9   21.64      49    32.9   999.0
  44   17:10   40.6    65    1.6    33      2.8   837.1   21.64      33    33.0   999.0
  44   17:20   39.4    67    1.1    29      2.3   837.0   21.64      20    32.9   999.0
  44   17:30   38.3    69    1.4    31      4.1   837.1   21.64       8    32.9   999.0
  44   17:40   37.7    70    1.0    36      2.9   837.2   21.62       2    32.9   999.0
  44   17:50   37.1    71    1.3    48      3.1   837.2   21.64       1    32.9   999.0
  44   18:00   36.5    73    1.1    44      2.2   837.2   21.64       0    32.9   999.0
  44   18:10   35.9    75    1.1    22      3.3   837.3   21.64       0    32.8   999.0
  44   18:20   35.7    76    1.3    32      3.8   837.4   21.64       0    32.8   999.0
  44   18:30   35.6    76    1.5    37      2.5   837.6   21.64       0    32.8   999.0
  44   18:40   35.5    78    1.9    43      2.9   837.8   21.62       0    32.8   999.0
  44   18:50   35.6    78    1.5    41      2.7   837.7   21.62       0    32.8   999.0
  44   19:00   35.7    78    1.7    48      2.7   837.7   21.64       0    32.8   999.0
  44   19:10   35.6    78    1.7    48      2.7   837.8   21.62       0    32.8   999.0
  44   19:20   35.3    79    2.3    37      3.0   837.7   21.64       0    32.8   999.0
  44   19:30   35.1    80    1.8    44      3.1   837.8   21.64       0    32.8   999.0
  44   19:40   35.3    79    2.4    45      4.1   837.8   21.64       0    32.8   999.0
  44   19:50   35.2    80    1.9    39      2.9   837.9   21.64       0    32.8   999.0
  44   20:00   35.0    80    2.0    28      3.1   838.0   21.64       0    32.8   999.0
  44   20:10   35.0    80    1.7    43      3.1   838.1   21.64       0    32.8   999.0
  44   20:20   35.2    80    1.3    39      2.5   838.0   21.62       0    32.8   999.0
  44   20:30   34.8    81    1.4    37      2.3   838.0   21.64       0    32.8   999.0
  44   20:40   35.1    80    1.1    53      2.3   838.0   21.64       0    32.8   999.0
  44   20:50   34.9    80    1.0    44      2.3   838.0   21.64       0    32.8   999.0
  44   21:00   34.8    81    1.7    42      2.4   837.9   21.64       0    32.8   999.0
  44   21:10   34.9    80    1.6    43      2.3   838.0   21.64       0    32.8   999.0
  44   21:20   34.9    80    1.6    43      2.7   838.1   21.64       0    32.8   999.0
  44   21:30   35.0    80    1.8    41      2.5   838.3   21.62       0    32.8   999.0
  44   21:40   34.7    80    1.5    48      2.3   838.3   21.62       0    32.8   999.0
  44   21:50   34.4    81    1.4    37      2.3   838.1   21.64       0    32.8   999.0
  44   22:00   34.5    81    1.0    45      2.1   838.2   21.64       0    32.8   999.0
  44   22:10   34.5    81    1.9    38      3.1   838.5   21.64       0    32.8   999.0
  44   22:20   34.6    81    1.8    37      2.7   838.6   21.64       0    32.8   999.0
  44   22:30   34.6    81    1.8    38      2.5   838.5   21.64       0    32.8   999.0
  44   22:40   34.8    80    0.7    40      2.4   838.5   21.62       0    32.8   999.0
  44   22:50   35.3    78    0.9    40      2.1   838.6   21.64       0    32.8   999.0
  44   23:00   35.1    80    1.1    41      2.6   838.5   21.64       0    32.8   999.0
  44   23:10   35.2    79    1.4    36      2.3   838.5   21.64       0    32.8   999.0
  44   23:20   35.2    79    1.4    41      2.9   838.4   21.64       0    32.8   999.0
  44   23:30   35.2    79    1.2    34      2.0   838.2   21.64       0    32.8   999.0

Return to Onion Creek graphs page.


Western Regional Climate Center,wrcc@dri.edu